createdAt,value
2022-08-22T00:00:28.014Z,15.74
2022-08-22T00:02:57.677Z,16.44
2022-08-22T00:03:39.983Z,15.74
2022-08-22T00:07:00.443Z,15.71
2022-08-22T00:09:57.471Z,15.68
2022-08-22T00:12:53.045Z,15.62
2022-08-22T00:15:52.645Z,15.57
2022-08-22T00:19:03.237Z,15.51
2022-08-22T00:22:09.837Z,15.45
2022-08-22T00:25:08.466Z,15.43
2022-08-22T00:28:25.161Z,15.41
2022-08-22T00:31:31.958Z,15.36
2022-08-22T00:34:34.439Z,15.34
2022-08-22T00:37:46.109Z,15.24
2022-08-22T00:41:05.201Z,15.25
2022-08-22T00:44:10.812Z,15.25
2022-08-22T00:47:06.886Z,15.22
2022-08-22T00:50:30.547Z,15.20
2022-08-22T00:53:39.207Z,15.13
2022-08-22T00:56:26.263Z,15.10
2022-08-22T00:59:23.241Z,15.08
2022-08-22T01:02:32.624Z,15.03
2022-08-22T01:05:25.687Z,14.99
2022-08-22T01:08:31.317Z,15.02
2022-08-22T01:11:27.654Z,14.98
2022-08-22T01:14:34.775Z,14.95
2022-08-22T01:17:45.374Z,14.91
2022-08-22T01:21:09.978Z,14.93
2022-08-22T01:24:24.700Z,14.88
2022-08-22T01:27:32.057Z,14.87
2022-08-22T01:30:42.258Z,14.81
2022-08-22T01:34:06.444Z,14.78
2022-08-22T01:37:43.742Z,14.81
2022-08-22T01:40:53.437Z,14.76
2022-08-22T01:43:59.299Z,14.78
2022-08-22T01:47:10.531Z,14.75
2022-08-22T01:50:19.022Z,14.68
2022-08-22T01:53:19.701Z,14.62
2022-08-22T01:56:12.949Z,14.56
2022-08-22T01:59:11.232Z,14.51
2022-08-22T02:02:10.375Z,14.52
2022-08-22T02:05:06.818Z,14.56
2022-08-22T02:08:21.022Z,14.56
2022-08-22T02:11:31.534Z,14.60
2022-08-22T02:14:43.198Z,14.56
2022-08-22T02:17:36.163Z,14.47
2022-08-22T02:20:34.407Z,14.45
2022-08-22T02:23:48.802Z,14.42
2022-08-22T02:26:50.783Z,14.42
2022-08-22T02:29:48.808Z,14.36
2022-08-22T02:33:07.382Z,14.35
2022-08-22T02:36:19.550Z,14.29
2022-08-22T02:39:35.438Z,14.34
2022-08-22T02:42:38.160Z,14.29
2022-08-22T02:45:40.889Z,14.27
2022-08-22T02:48:50.714Z,14.24
2022-08-22T02:51:53.087Z,14.26
2022-08-22T02:54:52.355Z,14.30
2022-08-22T02:57:47.203Z,14.26
2022-08-22T03:00:46.112Z,14.18
2022-08-22T03:03:40.216Z,14.15
2022-08-22T03:06:43.987Z,14.11
2022-08-22T03:09:37.028Z,14.00
2022-08-22T03:12:38.920Z,13.92
2022-08-22T03:15:52.537Z,13.89
2022-08-22T03:19:03.852Z,13.88
2022-08-22T03:22:05.681Z,13.86
2022-08-22T03:25:07.749Z,13.86
2022-08-22T03:28:10.367Z,13.77
2022-08-22T03:30:59.501Z,13.79
2022-08-22T03:34:15.443Z,13.74
2022-08-22T03:37:20.684Z,13.67
2022-08-22T03:40:20.170Z,13.62
2022-08-22T03:43:10.670Z,13.60
2022-08-22T03:45:57.872Z,13.60
2022-08-22T03:49:06.714Z,13.55
2022-08-22T03:52:31.092Z,13.54
2022-08-22T03:55:35.288Z,13.50
2022-08-22T03:58:34.750Z,13.49
2022-08-22T04:01:40.613Z,13.50
2022-08-22T04:05:04.347Z,13.44
2022-08-22T04:08:12.984Z,13.42
2022-08-22T04:11:07.982Z,13.48
2022-08-22T04:14:29.133Z,13.46
2022-08-22T04:17:52.184Z,13.42
2022-08-22T04:21:06.994Z,13.42
2022-08-22T04:23:54.053Z,13.39
2022-08-22T04:26:50.059Z,13.38
2022-08-22T04:29:52.657Z,13.35
2022-08-22T04:33:05.401Z,13.34
2022-08-22T04:36:20.296Z,13.30
2022-08-22T04:39:14.940Z,13.33
2022-08-22T04:42:32.605Z,13.36
2022-08-22T04:45:29.859Z,13.37
2022-08-22T04:48:22.487Z,13.33
2022-08-22T04:51:13.418Z,13.40
2022-08-22T04:54:39.762Z,13.45
2022-08-22T04:58:01.396Z,13.46
2022-08-22T05:01:15.072Z,13.50
2022-08-22T05:04:08.624Z,13.59
2022-08-22T05:07:18.514Z,13.63
2022-08-22T05:13:34.630Z,13.74
2022-08-22T05:16:25.795Z,13.80
2022-08-22T05:23:02.009Z,13.96
2022-08-22T05:26:04.232Z,14.04
2022-08-22T05:29:03.136Z,14.07
2022-08-22T05:32:09.880Z,14.11
2022-08-22T05:35:02.035Z,14.18
2022-08-22T05:37:55.502Z,14.30
2022-08-22T05:40:44.986Z,14.44
2022-08-22T05:43:38.963Z,14.39
2022-08-22T05:46:50.137Z,14.44
2022-08-22T05:49:45.229Z,14.57
2022-08-22T05:52:40.452Z,14.62
2022-08-22T05:55:42.917Z,14.55
2022-08-22T05:58:45.585Z,14.70
2022-08-22T06:01:59.061Z,14.75
2022-08-22T06:04:55.056Z,14.76
2022-08-22T06:07:48.456Z,14.89
2022-08-22T06:11:04.029Z,15.00
2022-08-22T06:14:08.212Z,15.08
2022-08-22T06:17:07.503Z,15.38
2022-08-22T06:19:55.367Z,15.61
2022-08-22T06:22:57.817Z,15.73
2022-08-22T06:25:48.725Z,15.74
2022-08-22T06:28:54.721Z,16.02
2022-08-22T06:31:46.974Z,16.11
2022-08-22T06:34:37.882Z,16.47
2022-08-22T06:37:34.532Z,16.72
2022-08-22T06:40:22.790Z,16.83
2022-08-22T06:43:21.548Z,17.05
2022-08-22T06:46:11.495Z,17.19
2022-08-22T06:49:02.120Z,17.32
2022-08-22T06:52:03.661Z,17.63
2022-08-22T06:55:03.540Z,17.60
2022-08-22T07:02:24.248Z,17.68
2022-08-22T07:08:26.388Z,17.98
2022-08-22T07:11:30.621Z,18.05
2022-08-22T07:14:26.524Z,18.25
2022-08-22T07:18:00.598Z,18.53
2022-08-22T07:32:28.627Z,18.64
2022-08-22T07:38:44.079Z,19.65
2022-08-22T07:42:02.839Z,19.63
2022-08-22T07:45:06.266Z,19.64
2022-08-22T07:48:25.114Z,19.77
2022-08-22T07:51:20.450Z,19.90
2022-08-22T07:58:18.036Z,20.48
2022-08-22T08:05:47.442Z,20.82
2022-08-22T08:08:49.147Z,20.88
2022-08-22T08:11:42.350Z,21.03
2022-08-22T08:17:44.507Z,21.17
2022-08-22T08:20:38.340Z,21.82
2022-08-22T08:23:30.530Z,22.21
2022-08-22T08:26:31.297Z,22.30
2022-08-22T08:29:19.310Z,22.19
2022-08-22T08:32:13.929Z,22.33
2022-08-22T08:38:58.158Z,22.96
2022-08-22T08:41:51.828Z,23.48
2022-08-22T08:44:49.615Z,23.42
2022-08-22T08:48:03.259Z,23.27
2022-08-22T08:51:16.980Z,23.85
2022-08-22T08:54:43.588Z,24.11
2022-08-22T08:57:42.576Z,24.37
2022-08-22T09:00:51.234Z,24.55
2022-08-22T09:04:15.663Z,24.55
2022-08-22T09:07:16.652Z,24.94
2022-08-22T09:10:11.813Z,25.52
2022-08-22T09:13:16.335Z,25.96
2022-08-22T09:16:36.687Z,25.99
2022-08-22T09:19:29.837Z,25.84
2022-08-22T09:22:33.526Z,25.51
2022-08-22T09:26:01.141Z,25.56
2022-08-22T09:29:02.142Z,25.80
2022-08-22T09:32:13.193Z,26.12
2022-08-22T09:35:16.998Z,26.58
2022-08-22T09:38:48.306Z,26.53
2022-08-22T09:41:44.631Z,25.93
2022-08-22T09:44:59.421Z,26.27
2022-08-22T09:48:07.600Z,26.01
2022-08-22T09:51:28.596Z,26.54
2022-08-22T09:54:33.068Z,27.28
2022-08-22T09:57:32.696Z,27.53
2022-08-22T10:00:40.664Z,27.59
2022-08-22T10:03:52.080Z,27.37
2022-08-22T10:06:41.568Z,27.36
2022-08-22T10:09:39.934Z,27.53
2022-08-22T10:12:36.159Z,27.31
2022-08-22T10:15:37.997Z,26.50
2022-08-22T10:18:37.345Z,25.86
2022-08-22T10:22:03.744Z,26.60
2022-08-22T10:25:07.640Z,26.85
2022-08-22T10:28:14.299Z,26.98
2022-08-22T10:31:08.399Z,27.00
2022-08-22T10:34:09.267Z,26.83
2022-08-22T10:36:56.274Z,27.04
2022-08-22T10:39:52.560Z,27.37
2022-08-22T10:42:51.646Z,27.69
2022-08-22T10:45:45.427Z,27.47
2022-08-22T10:48:35.219Z,27.79
2022-08-22T10:51:33.414Z,27.62
2022-08-22T10:54:35.157Z,28.18
2022-08-22T10:57:36.437Z,28.43
2022-08-22T11:00:58.517Z,28.48
2022-08-22T11:03:55.617Z,27.79
2022-08-22T11:06:54.763Z,27.52
2022-08-22T11:09:43.708Z,28.04
2022-08-22T11:13:18.646Z,28.45
2022-08-22T11:16:05.551Z,27.99
2022-08-22T11:19:31.205Z,28.26
2022-08-22T11:22:34.179Z,28.94
2022-08-22T11:25:36.197Z,29.34
2022-08-22T11:29:13.475Z,29.24
2022-08-22T11:32:32.097Z,29.27
2022-08-22T11:35:24.310Z,29.70
2022-08-22T11:38:32.074Z,29.90
2022-08-22T11:41:45.101Z,29.51
2022-08-22T11:44:50.300Z,29.68
2022-08-22T11:47:47.806Z,29.65
2022-08-22T11:50:42.557Z,29.63
2022-08-22T11:53:39.026Z,29.81
2022-08-22T11:56:26.230Z,29.28
2022-08-22T11:59:43.120Z,30.01
2022-08-22T12:02:48.989Z,30.06
2022-08-22T12:05:59.742Z,29.48
2022-08-22T12:08:50.994Z,29.42
2022-08-22T12:12:02.317Z,28.56
2022-08-22T12:15:08.891Z,29.64
2022-08-22T12:18:08.089Z,29.52
2022-08-22T12:21:16.176Z,29.99
2022-08-22T12:24:06.031Z,30.84
2022-08-22T12:27:28.699Z,30.90
2022-08-22T12:30:31.929Z,31.27
2022-08-22T12:33:28.081Z,30.50
2022-08-22T12:36:40.641Z,30.70
2022-08-22T12:39:40.344Z,31.12
2022-08-22T12:43:10.632Z,30.96
2022-08-22T12:46:16.158Z,31.46
2022-08-22T12:49:25.599Z,30.76
2022-08-22T12:52:50.758Z,30.68
2022-08-22T12:56:16.135Z,31.08
2022-08-22T12:59:20.041Z,31.07
2022-08-22T13:02:23.979Z,30.68
2022-08-22T13:05:26.212Z,30.84
2022-08-22T13:08:20.885Z,30.99
2022-08-22T13:11:22.687Z,30.99
2022-08-22T13:14:18.513Z,30.84
2022-08-22T13:17:24.450Z,30.61
2022-08-22T13:20:26.759Z,30.82
2022-08-22T13:23:26.402Z,30.82
2022-08-22T13:26:34.407Z,31.22
2022-08-22T13:29:39.167Z,30.89
2022-08-22T13:32:38.359Z,30.91
2022-08-22T13:35:44.636Z,30.77
2022-08-22T13:38:48.274Z,30.71
2022-08-22T13:41:44.983Z,31.21
2022-08-22T13:44:45.902Z,31.17
2022-08-22T13:47:39.445Z,31.24
2022-08-22T13:50:53.570Z,31.01
2022-08-22T13:53:50.026Z,30.03
2022-08-22T13:57:15.410Z,29.84
2022-08-22T14:00:07.434Z,30.66
2022-08-22T14:03:00.674Z,30.88
2022-08-22T14:06:06.283Z,30.36
2022-08-22T14:09:17.305Z,30.18
2022-08-22T14:12:23.034Z,29.87
2022-08-22T14:15:11.626Z,29.63
2022-08-22T14:18:12.657Z,29.28
2022-08-22T14:21:40.267Z,29.08
2022-08-22T14:24:55.720Z,28.80
2022-08-22T14:28:06.231Z,29.05
2022-08-22T14:31:00.686Z,29.41
2022-08-22T14:34:07.654Z,29.58
2022-08-22T14:37:08.618Z,30.38
2022-08-22T14:40:04.460Z,30.85
2022-08-22T14:42:59.258Z,30.85
2022-08-22T14:45:56.170Z,30.11
2022-08-22T14:49:11.250Z,29.28
2022-08-22T14:52:19.959Z,29.44
2022-08-22T14:55:13.765Z,29.45
2022-08-22T14:58:05.978Z,29.13
2022-08-22T15:00:56.061Z,29.14
2022-08-22T15:03:51.303Z,29.56
2022-08-22T15:06:50.970Z,29.93
2022-08-22T15:09:40.574Z,29.99
2022-08-22T15:12:33.304Z,30.26
2022-08-22T15:15:28.652Z,30.57
2022-08-22T15:21:33.027Z,30.72
2022-08-22T15:24:24.039Z,30.65
2022-08-22T15:27:12.031Z,30.77
2022-08-22T15:30:05.088Z,30.63
2022-08-22T15:32:53.053Z,30.41
2022-08-22T15:35:42.273Z,30.47
2022-08-22T15:38:38.967Z,30.28
2022-08-22T15:41:40.933Z,30.22
2022-08-22T15:44:33.513Z,29.94
2022-08-22T15:47:34.924Z,29.41
2022-08-22T15:50:39.134Z,29.13
2022-08-22T15:53:50.355Z,28.71
2022-08-22T15:57:12.711Z,28.75
2022-08-22T16:00:12.254Z,28.70
2022-08-22T16:03:24.129Z,28.84
2022-08-22T16:06:16.295Z,28.58
2022-08-22T16:09:05.703Z,28.74
2022-08-22T16:11:55.710Z,29.24
2022-08-22T16:14:42.803Z,29.61
2022-08-22T16:17:29.878Z,30.13
2022-08-22T16:20:20.171Z,30.49
2022-08-22T16:23:08.961Z,30.68
2022-08-22T16:25:59.123Z,30.50
2022-08-22T16:28:59.992Z,30.36
2022-08-22T16:31:46.979Z,30.04
2022-08-22T16:34:37.063Z,30.24
2022-08-22T16:37:46.140Z,30.19
2022-08-22T16:40:47.299Z,29.80
2022-08-22T16:43:34.585Z,29.47
2022-08-22T16:46:37.523Z,29.31
2022-08-22T16:49:29.861Z,29.28
2022-08-22T16:52:26.048Z,29.00
2022-08-22T16:55:31.304Z,28.90
2022-08-22T16:58:56.543Z,28.74
2022-08-22T17:01:45.885Z,28.74
2022-08-22T17:04:41.879Z,28.52
2022-08-22T17:07:59.646Z,28.30
2022-08-22T17:11:03.211Z,27.82
2022-08-22T17:13:57.613Z,27.87
2022-08-22T17:16:56.649Z,27.65
2022-08-22T17:20:05.709Z,27.55
2022-08-22T17:23:00.780Z,27.48
2022-08-22T17:25:54.790Z,27.16
2022-08-22T17:29:10.391Z,26.95
2022-08-22T17:32:10.603Z,27.06
2022-08-22T17:35:09.824Z,27.07
2022-08-22T17:38:00.249Z,26.69
2022-08-22T17:41:06.117Z,26.48
2022-08-22T17:44:35.247Z,26.48
2022-08-22T17:47:30.621Z,26.28
2022-08-22T17:50:44.733Z,26.13
2022-08-22T17:53:53.524Z,25.92
2022-08-22T17:57:00.373Z,25.71
2022-08-22T18:00:12.315Z,25.73
2022-08-22T18:03:11.567Z,25.63
2022-08-22T18:06:10.955Z,25.44
2022-08-22T18:09:20.158Z,25.44
2022-08-22T18:12:34.045Z,25.36
2022-08-22T18:15:55.208Z,25.19
2022-08-22T18:18:52.915Z,25.07
2022-08-22T18:21:51.434Z,25.01
2022-08-22T18:25:12.543Z,25.01
2022-08-22T18:29:06.514Z,24.85
2022-08-22T18:32:19.697Z,24.79
2022-08-22T18:35:09.608Z,24.71
2022-08-22T18:38:19.929Z,24.45
2022-08-22T18:41:26.680Z,24.33
2022-08-22T18:44:26.283Z,24.21
2022-08-22T18:47:24.734Z,24.18
2022-08-22T18:50:32.521Z,24.08
2022-08-22T18:54:18.695Z,23.97
2022-08-22T18:57:30.975Z,23.92
2022-08-22T19:00:51.141Z,23.84
2022-08-22T19:03:40.950Z,23.75
2022-08-22T19:06:41.301Z,23.66
2022-08-22T19:09:45.189Z,23.69
2022-08-22T19:13:04.126Z,23.62
2022-08-22T19:16:01.116Z,23.53
2022-08-22T19:19:02.987Z,23.60
2022-08-22T19:22:20.838Z,23.66
2022-08-22T19:25:26.329Z,23.51
2022-08-22T19:28:13.310Z,23.35
2022-08-22T19:31:41.982Z,23.31
2022-08-22T19:34:28.930Z,23.36
2022-08-22T19:37:30.665Z,23.20
2022-08-22T19:40:45.163Z,23.28
2022-08-22T19:43:37.352Z,23.28
2022-08-22T19:46:40.243Z,23.33
2022-08-22T19:49:30.693Z,23.19
2022-08-22T19:52:51.494Z,23.09
2022-08-22T19:55:38.562Z,23.13
2022-08-22T19:58:40.707Z,23.00
2022-08-22T20:01:44.167Z,22.97
2022-08-22T20:04:40.269Z,22.93
2022-08-22T20:07:53.390Z,22.84
2022-08-22T20:11:09.538Z,22.80
2022-08-22T20:14:32.689Z,22.76
2022-08-22T20:17:26.827Z,22.75
2022-08-22T20:20:27.993Z,22.69
2022-08-22T20:23:28.467Z,22.60
2022-08-22T20:26:16.049Z,22.57
2022-08-22T20:29:08.120Z,22.43
2022-08-22T20:31:58.651Z,22.46
2022-08-22T20:34:51.223Z,22.38
2022-08-22T20:38:05.803Z,22.42
2022-08-22T20:41:03.168Z,22.28
2022-08-22T20:44:19.127Z,22.24
2022-08-22T20:47:14.096Z,22.26
2022-08-22T20:50:12.458Z,22.25
2022-08-22T20:53:15.609Z,22.23
2022-08-22T20:56:05.728Z,22.10
2022-08-22T20:58:53.358Z,22.11
2022-08-22T21:01:41.313Z,22.20
2022-08-22T21:04:42.515Z,22.09
2022-08-22T21:07:37.168Z,22.08
2022-08-22T21:10:46.727Z,21.95
2022-08-22T21:13:38.189Z,22.08
2022-08-22T21:16:33.515Z,21.93
2022-08-22T21:19:26.362Z,21.94
2022-08-22T21:22:25.720Z,21.94
2022-08-22T21:25:14.086Z,21.96
2022-08-22T21:28:01.330Z,21.80
2022-08-22T21:30:48.469Z,21.80
2022-08-22T21:33:38.887Z,21.81
2022-08-22T21:36:30.291Z,21.73
2022-08-22T21:39:21.721Z,21.67
2022-08-22T21:42:24.003Z,21.58
2022-08-22T21:45:31.869Z,21.50
2022-08-22T21:48:43.785Z,21.71
2022-08-22T21:51:43.088Z,21.79
2022-08-22T21:54:40.229Z,21.81
2022-08-22T21:57:35.618Z,22.00
2022-08-22T22:01:00.422Z,21.98
2022-08-22T22:03:47.524Z,21.81
2022-08-22T22:06:34.696Z,21.78
2022-08-22T22:09:21.866Z,21.75
2022-08-22T22:12:11.335Z,21.68
2022-08-22T22:14:58.490Z,21.58
2022-08-22T22:17:45.999Z,21.58
2022-08-22T22:20:33.358Z,21.59
2022-08-22T22:23:22.194Z,21.72
2022-08-22T22:26:09.405Z,21.62
2022-08-22T22:28:58.719Z,21.53
2022-08-22T22:31:45.934Z,21.48
2022-08-22T22:34:33.074Z,21.40
2022-08-22T22:37:20.364Z,21.42
2022-08-22T22:40:08.758Z,21.36
2022-08-22T22:42:55.816Z,21.23
2022-08-22T22:45:42.868Z,21.19
2022-08-22T22:48:29.950Z,21.03
2022-08-22T22:51:16.970Z,20.89
2022-08-22T22:54:04.028Z,20.75
2022-08-22T22:56:51.636Z,20.67
2022-08-22T22:59:38.981Z,20.62
2022-08-22T23:02:27.125Z,20.54
2022-08-22T23:05:14.201Z,20.43
2022-08-22T23:08:02.475Z,20.33
2022-08-22T23:10:49.549Z,20.23
2022-08-22T23:13:39.557Z,20.24
2022-08-22T23:16:28.896Z,20.18
2022-08-22T23:19:17.319Z,20.16
2022-08-22T23:22:05.373Z,20.19
2022-08-22T23:24:52.508Z,20.28
2022-08-22T23:27:39.840Z,20.38
2022-08-22T23:30:26.889Z,20.46
2022-08-22T23:33:14.360Z,20.53
2022-08-22T23:36:01.380Z,20.53
2022-08-22T23:38:49.950Z,20.52
2022-08-22T23:41:37.780Z,20.57
2022-08-22T23:44:29.646Z,20.50
2022-08-22T23:47:16.661Z,20.53
2022-08-22T23:50:05.884Z,20.51
2022-08-22T23:52:53.444Z,20.62
2022-08-22T23:55:40.783Z,20.62
2022-08-22T23:58:27.878Z,20.63
